Time;durP1;ratioP1;P1;durP2;ratioP2;P2;SDS_P1;SDS_P2;PMS_P1;PMS_P2;Temp;Humidity;BMP_temperature;BMP_pressure;BME280_temperature;BME280_humidity;BME280_pressure;Samples;Min_cycle;Max_cycle;Signal;HPM_P1;HPM_P2
2023/03/02 00:01:47;;;;;;;11.20;10.30;;;;;;;;;;4993508;28;20483;-54
2023/03/02 00:04:25;;;;;;;11.05;10.15;;;;;;;;;;4994265;28;20375;-55
2023/03/02 00:06:52;;;;;;;10.32;9.63;;;;;;;;;;4994309;28;20025;-53
2023/03/02 00:09:18;;;;;;;11.07;10.27;;;;;;;;;;4995813;28;20038;-55
2023/03/02 00:11:44;;;;;;;10.48;9.77;;;;;;;;;;4993940;28;20402;-52
2023/03/02 00:14:10;;;;;;;12.48;11.60;;;;;;;;;;4998030;28;20029;-54
2023/03/02 00:16:35;;;;;;;11.15;10.38;;;;;;;;;;4991512;28;20030;-54
2023/03/02 00:19:00;;;;;;;10.32;9.63;;;;;;;;;;4991577;28;20031;-53
2023/03/02 00:21:26;;;;;;;9.70;9.07;;;;;;;;;;4993924;28;20066;-50
2023/03/02 00:23:51;;;;;;;10.48;9.75;;;;;;;;;;4995488;28;20559;-54
2023/03/02 00:26:17;;;;;;;10.68;9.88;;;;;;;;;;4993106;28;20042;-53
2023/03/02 00:28:42;;;;;;;10.05;9.35;;;;;;;;;;4995016;28;20073;-54
2023/03/02 00:31:08;;;;;;;10.15;9.48;;;;;;;;;;4996661;28;20053;-54
2023/03/02 00:33:33;;;;;;;9.98;9.27;;;;;;;;;;4995286;28;20043;-54
2023/03/02 00:35:59;;;;;;;10.43;9.55;;;;;;;;;;4995236;28;20034;-54
2023/03/02 00:38:26;;;;;;;9.55;8.85;;;;;;;;;;4993812;28;20421;-54
2023/03/02 00:40:53;;;;;;;10.13;9.32;;;;;;;;;;4994518;28;20081;-55
2023/03/02 00:43:18;;;;;;;9.73;9.02;;;;;;;;;;4992436;28;20129;-55
2023/03/02 00:45:43;;;;;;;9.75;9.10;;;;;;;;;;4994628;28;20112;-54
2023/03/02 00:48:09;;;;;;;9.23;8.63;;;;;;;;;;4993388;28;20643;-55
2023/03/02 00:50:39;;;;;;;11.13;10.32;;;;;;;;;;4996410;28;20042;-53
2023/03/02 00:53:08;;;;;;;11.35;10.52;;;;;;;;;;4994326;28;20042;-53
2023/03/02 00:55:33;;;;;;;9.93;9.32;;;;;;;;;;4994529;28;20140;-52
2023/03/02 00:57:59;;;;;;;10.15;9.45;;;;;;;;;;4995570;28;20065;-54
2023/03/02 01:00:27;;;;;;;10.07;9.32;;;;;;;;;;4994159;28;20042;-54
2023/03/02 01:02:53;;;;;;;9.75;9.15;;;;;;;;;;4993179;28;20076;-54
2023/03/02 01:05:18;;;;;;;10.75;10.05;;;;;;;;;;4993942;28;20128;-54
2023/03/02 01:07:43;;;;;;;9.80;9.20;;;;;;;;;;4994816;28;20080;-52
2023/03/02 01:10:09;;;;;;;9.65;9.05;;;;;;;;;;4993869;28;20041;-52
2023/03/02 01:12:35;;;;;;;10.00;9.40;;;;;;;;;;4995709;28;20060;-52
2023/03/02 01:15:00;;;;;;;9.90;9.23;;;;;;;;;;4993800;28;20169;-54
2023/03/02 01:17:26;;;;;;;10.63;9.73;;;;;;;;;;4991431;28;20034;-54
2023/03/02 01:19:52;;;;;;;11.95;9.70;;;;;;;;;;4994582;28;20049;-54
2023/03/02 01:22:18;;;;;;;10.68;9.82;;;;;;;;;;4994397;28;20523;-54
2023/03/02 01:24:43;;;;;;;11.52;10.75;;;;;;;;;;5010382;28;20530;-54
2023/03/02 01:27:09;;;;;;;10.38;9.57;;;;;;;;;;4992170;28;20089;-54
2023/03/02 01:29:34;;;;;;;10.18;9.48;;;;;;;;;;4993020;28;20496;-54
2023/03/02 01:32:01;;;;;;;11.15;10.38;;;;;;;;;;4990660;28;20122;-54
2023/03/02 01:34:26;;;;;;;10.93;10.23;;;;;;;;;;4992318;28;20112;-56
2023/03/02 01:36:51;;;;;;;10.40;9.70;;;;;;;;;;4992885;28;20466;-53
2023/03/02 01:39:17;;;;;;;10.80;10.00;;;;;;;;;;4994733;28;20766;-54
2023/03/02 01:41:44;;;;;;;10.73;9.98;;;;;;;;;;4993402;28;20724;-51
2023/03/02 01:44:34;;;;;;;9.63;8.98;;;;;;;;;;4995289;28;20046;-54
2023/03/02 01:47:01;;;;;;;10.75;9.95;;;;;;;;;;4994380;28;20515;-54
2023/03/02 01:49:27;;;;;;;11.27;10.48;;;;;;;;;;4994800;28;20049;-53
2023/03/02 01:51:53;;;;;;;10.18;9.48;;;;;;;;;;4995371;28;20364;-54
2023/03/02 01:54:22;;;;;;;10.05;9.35;;;;;;;;;;4994998;28;20042;-54
2023/03/02 01:56:51;;;;;;;11.55;10.43;;;;;;;;;;4992533;28;20367;-54
2023/03/02 01:59:20;;;;;;;9.60;9.00;;;;;;;;;;4997404;28;20101;-54
2023/03/02 02:01:50;;;;;;;10.48;9.82;;;;;;;;;;4993657;28;20042;-54
2023/03/02 02:04:16;;;;;;;10.13;9.50;;;;;;;;;;4993621;28;20042;-54
2023/03/02 02:06:54;;;;;;;10.18;9.48;;;;;;;;;;4992035;28;20502;-54
2023/03/02 02:09:22;;;;;;;10.85;10.07;;;;;;;;;;4994175;28;20128;-54
2023/03/02 02:11:49;;;;;;;10.02;9.23;;;;;;;;;;4994015;28;20052;-53
2023/03/02 02:14:14;;;;;;;11.20;10.30;;;;;;;;;;4995254;28;20130;-54
2023/03/02 02:16:40;;;;;;;11.10;9.80;;;;;;;;;;4992065;28;20061;-54
2023/03/02 02:19:31;;;;;;;10.88;10.07;;;;;;;;;;4992287;28;20121;-55
2023/03/02 02:21:57;;;;;;;10.48;9.68;;;;;;;;;;4995509;28;20150;-50
2023/03/02 02:24:51;;;;;;;12.23;11.43;;;;;;;;;;4993751;28;20030;-52
2023/03/02 02:27:17;;;;;;;10.35;9.65;;;;;;;;;;4995211;28;20050;-51
2023/03/02 02:29:46;;;;;;;10.93;10.13;;;;;;;;;;4996310;28;20034;-53
2023/03/02 02:32:18;;;;;;;10.13;9.45;;;;;;;;;;4996346;28;20038;-54
2023/03/02 02:34:55;;;;;;;11.18;10.30;;;;;;;;;;5012377;28;20140;-55
2023/03/02 02:38:01;;;;;;;9.65;9.05;;;;;;;;;;4993885;28;20380;-53
2023/03/02 02:40:48;;;;;;;10.05;9.35;;;;;;;;;;4944649;28;20042;-53
2023/03/02 02:43:16;;;;;;;10.88;10.18;;;;;;;;;;4939918;28;20043;-53
2023/03/02 02:45:42;;;;;;;11.20;10.43;;;;;;;;;;4974864;28;20054;-54
2023/03/02 02:48:14;;;;;;;9.57;8.98;;;;;;;;;;4996126;28;20040;-52
2023/03/02 02:50:39;;;;;;;10.32;9.63;;;;;;;;;;4998571;28;20044;-52
2023/03/02 02:53:11;;;;;;;19.00;11.10;;;;;;;;;;4997758;28;20041;-54
2023/03/02 02:55:37;;;;;;;10.85;10.15;;;;;;;;;;4996429;28;20038;-54
2023/03/02 02:58:27;;;;;;;10.52;9.82;;;;;;;;;;4996403;28;20078;-54
2023/03/02 03:00:53;;;;;;;9.98;9.32;;;;;;;;;;4995291;28;20038;-54
2023/03/02 03:03:29;;;;;;;10.10;9.43;;;;;;;;;;4993045;28;20594;-54
2023/03/02 03:05:56;;;;;;;11.13;10.32;;;;;;;;;;4997820;28;20157;-54
2023/03/02 03:08:39;;;;;;;12.63;11.50;;;;;;;;;;4992993;28;20069;-52
2023/03/02 03:11:05;;;;;;;10.80;9.85;;;;;;;;;;4993713;28;20038;-55
2023/03/02 03:13:31;;;;;;;10.95;10.15;;;;;;;;;;4998709;28;20038;-54
2023/03/02 03:15:57;;;;;;;10.23;9.50;;;;;;;;;;4996104;28;20038;-52
2023/03/02 03:18:23;;;;;;;10.95;10.25;;;;;;;;;;4995367;28;20038;-54
2023/03/02 03:20:48;;;;;;;9.77;9.18;;;;;;;;;;4995755;28;20042;-53
2023/03/02 03:23:14;;;;;;;11.50;10.70;;;;;;;;;;4993254;28;20049;-54
2023/03/02 03:25:39;;;;;;;12.00;11.00;;;;;;;;;;4995343;28;20511;-53
2023/03/02 03:28:05;;;;;;;9.88;9.25;;;;;;;;;;4994980;28;20041;-53
2023/03/02 03:30:30;;;;;;;10.38;9.68;;;;;;;;;;4996558;28;20559;-52
2023/03/02 03:32:55;;;;;;;14.13;10.80;;;;;;;;;;4996629;28;20037;-51
2023/03/02 03:35:21;;;;;;;10.38;9.68;;;;;;;;;;4999003;28;20625;-53
2023/03/02 03:37:47;;;;;;;10.45;9.75;;;;;;;;;;4993682;28;20030;-53
2023/03/02 03:40:12;;;;;;;11.93;11.13;;;;;;;;;;4994976;28;20487;-54
2023/03/02 03:42:38;;;;;;;10.40;9.70;;;;;;;;;;4994712;28;20057;-54
2023/03/02 03:45:05;;;;;;;10.52;9.82;;;;;;;;;;4998336;28;20034;-52
2023/03/02 03:47:30;;;;;;;10.75;9.98;;;;;;;;;;4996115;28;20053;-53
2023/03/02 03:49:55;;;;;;;10.68;9.98;;;;;;;;;;4996475;28;20053;-54
2023/03/02 03:52:29;;;;;;;10.75;10.02;;;;;;;;;;4997333;28;20045;-54
2023/03/02 03:54:59;;;;;;;10.85;10.05;;;;;;;;;;4993803;28;20030;-54
2023/03/02 03:57:26;;;;;;;12.10;11.05;;;;;;;;;;4995747;28;20041;-53
2023/03/02 03:59:51;;;;;;;10.57;9.88;;;;;;;;;;4996348;28;20065;-52
2023/03/02 04:02:17;;;;;;;11.38;10.60;;;;;;;;;;4996533;28;20034;-51
2023/03/02 04:04:44;;;;;;;10.85;10.15;;;;;;;;;;4994370;28;20064;-50
2023/03/02 04:07:09;;;;;;;10.05;9.38;;;;;;;;;;4997072;28;20180;-55
2023/03/02 04:09:36;;;;;;;11.07;10.38;;;;;;;;;;4996970;28;20470;-54
2023/03/02 04:12:02;;;;;;;11.35;10.60;;;;;;;;;;4996517;28;20042;-54
2023/03/02 04:14:28;;;;;;;12.00;11.20;;;;;;;;;;4997832;28;20095;-55
2023/03/02 04:16:54;;;;;;;10.07;9.43;;;;;;;;;;5000388;28;20443;-54
2023/03/02 04:19:19;;;;;;;10.90;10.20;;;;;;;;;;4995263;28;20457;-54
2023/03/02 04:21:48;;;;;;;10.85;10.15;;;;;;;;;;4995334;28;20038;-52
2023/03/02 04:24:14;;;;;;;10.18;9.27;;;;;;;;;;4995305;28;20046;-50
2023/03/02 04:26:41;;;;;;;9.68;9.07;;;;;;;;;;4994083;28;20038;-50
2023/03/02 04:29:07;;;;;;;11.88;11.07;;;;;;;;;;4993343;28;20033;-53
2023/03/02 04:31:32;;;;;;;11.10;10.30;;;;;;;;;;4994656;28;20145;-55
2023/03/02 04:33:58;;;;;;;11.25;10.52;;;;;;;;;;4995316;28;20585;-55
2023/03/02 04:36:24;;;;;;;10.88;10.13;;;;;;;;;;4994893;28;20034;-54
2023/03/02 04:38:50;;;;;;;10.63;9.82;;;;;;;;;;4996011;28;20129;-55
2023/03/02 04:41:16;;;;;;;10.73;9.95;;;;;;;;;;4995302;28;20038;-55
2023/03/02 04:43:41;;;;;;;11.27;10.40;;;;;;;;;;4993216;28;20067;-55
2023/03/02 04:46:12;;;;;;;10.82;10.02;;;;;;;;;;4993042;28;20444;-55
2023/03/02 04:48:37;;;;;;;11.68;10.88;;;;;;;;;;4994040;28;20034;-55
2023/03/02 04:51:03;;;;;;;11.02;10.30;;;;;;;;;;4993738;28;20065;-54
2023/03/02 04:53:28;;;;;;;11.25;10.50;;;;;;;;;;4992639;28;20050;-54
2023/03/02 04:55:53;;;;;;;11.15;10.30;;;;;;;;;;4995606;28;20534;-53
2023/03/02 04:58:19;;;;;;;10.93;10.13;;;;;;;;;;4998342;28;20033;-55
2023/03/02 05:00:44;;;;;;;11.60;10.77;;;;;;;;;;4990740;28;20093;-55
2023/03/02 05:03:09;;;;;;;10.68;9.98;;;;;;;;;;4992677;28;20042;-54
2023/03/02 05:05:35;;;;;;;10.75;9.93;;;;;;;;;;4994914;28;20030;-52
2023/03/02 05:08:00;;;;;;;10.20;9.50;;;;;;;;;;4992713;28;20042;-51
2023/03/02 05:10:27;;;;;;;11.20;10.40;;;;;;;;;;4995854;28;20079;-53
2023/03/02 05:12:53;;;;;;;12.25;11.35;;;;;;;;;;4994151;28;20049;-53
2023/03/02 05:15:36;;;;;;;11.18;10.15;;;;;;;;;;4996719;28;20034;-54
2023/03/02 05:18:03;;;;;;;10.98;10.27;;;;;;;;;;4992766;28;20034;-53
2023/03/02 05:20:30;;;;;;;9.98;9.38;;;;;;;;;;4992659;28;20038;-54
2023/03/02 05:22:58;;;;;;;10.65;9.95;;;;;;;;;;4995116;28;20455;-55
2023/03/02 05:25:25;;;;;;;10.13;9.43;;;;;;;;;;4994016;28;20474;-54
2023/03/02 05:27:51;;;;;;;10.43;9.75;;;;;;;;;;4993738;28;20134;-54
2023/03/02 05:30:18;;;;;;;12.27;11.40;;;;;;;;;;4995299;28;20037;-54
2023/03/02 05:32:43;;;;;;;10.90;10.20;;;;;;;;;;4989800;28;20038;-53
2023/03/02 05:35:09;;;;;;;11.13;10.38;;;;;;;;;;4993874;28;20074;-55
2023/03/02 05:37:34;;;;;;;11.90;11.00;;;;;;;;;;4992645;28;20126;-55
2023/03/02 05:40:00;;;;;;;12.38;11.38;;;;;;;;;;4992239;28;20038;-52
2023/03/02 05:42:25;;;;;;;10.13;9.52;;;;;;;;;;4992577;28;20085;-54
2023/03/02 05:44:51;;;;;;;10.98;10.27;;;;;;;;;;4992919;28;20089;-52
2023/03/02 05:47:16;;;;;;;11.50;10.70;;;;;;;;;;4993560;28;20042;-53
2023/03/02 05:49:41;;;;;;;10.43;9.73;;;;;;;;;;4993568;28;20117;-56
2023/03/02 05:52:07;;;;;;;11.07;10.10;;;;;;;;;;4993192;28;20576;-53
2023/03/02 05:54:32;;;;;;;10.18;9.50;;;;;;;;;;4999536;28;20030;-54
2023/03/02 05:56:57;;;;;;;10.32;9.65;;;;;;;;;;4994352;28;20048;-54
2023/03/02 05:59:23;;;;;;;11.50;10.60;;;;;;;;;;4991883;28;20475;-53
2023/03/02 06:01:49;;;;;;;10.82;9.95;;;;;;;;;;4993795;28;20642;-52
2023/03/02 06:04:14;;;;;;;10.48;9.75;;;;;;;;;;4998804;28;20061;-51
2023/03/02 06:06:40;;;;;;;10.88;10.13;;;;;;;;;;4995289;28;20126;-53
2023/03/02 06:09:05;;;;;;;10.68;9.98;;;;;;;;;;4998607;28;20034;-55
2023/03/02 06:11:30;;;;;;;10.52;9.82;;;;;;;;;;5000648;28;20353;-53
2023/03/02 06:13:56;;;;;;;10.75;9.98;;;;;;;;;;4998053;28;20558;-54
2023/03/02 06:16:21;;;;;;;10.20;9.50;;;;;;;;;;5001694;28;20030;-52
2023/03/02 06:18:46;;;;;;;10.98;10.13;;;;;;;;;;5004219;28;20088;-50
2023/03/02 06:21:13;;;;;;;10.45;9.70;;;;;;;;;;4997346;28;20033;-53
2023/03/02 06:23:38;;;;;;;10.45;9.75;;;;;;;;;;4997006;28;20049;-52
2023/03/02 06:26:08;;;;;;;11.15;10.35;;;;;;;;;;4994999;28;20037;-53
2023/03/02 06:28:34;;;;;;;10.65;9.85;;;;;;;;;;5005626;28;20472;-53
2023/03/02 06:30:59;;;;;;;10.02;9.32;;;;;;;;;;4995426;28;20038;-55
2023/03/02 06:33:24;;;;;;;10.63;9.93;;;;;;;;;;4997335;28;20038;-54
2023/03/02 06:35:50;;;;;;;10.20;9.50;;;;;;;;;;4995351;28;20104;-51
2023/03/02 06:38:16;;;;;;;10.82;10.13;;;;;;;;;;4998032;28;20042;-55
2023/03/02 06:40:41;;;;;;;10.95;10.05;;;;;;;;;;4994021;28;20065;-55
2023/03/02 06:43:06;;;;;;;10.32;9.63;;;;;;;;;;4998408;28;20034;-55
2023/03/02 06:45:36;;;;;;;10.82;10.13;;;;;;;;;;4997983;28;20053;-54
2023/03/02 06:48:02;;;;;;;11.02;10.23;;;;;;;;;;4997487;28;20647;-51
2023/03/02 06:50:28;;;;;;;10.48;9.68;;;;;;;;;;4996272;28;20049;-54
2023/03/02 06:52:53;;;;;;;11.38;10.48;;;;;;;;;;4992260;28;20034;-54
2023/03/02 06:55:19;;;;;;;10.50;9.80;;;;;;;;;;4995697;28;20034;-53
2023/03/02 06:57:44;;;;;;;10.70;10.00;;;;;;;;;;4996703;28;20408;-54
2023/03/02 07:00:23;;;;;;;10.43;9.73;;;;;;;;;;4995155;28;20403;-51
2023/03/02 07:02:49;;;;;;;9.73;9.02;;;;;;;;;;4994938;28;20849;-54
2023/03/02 07:05:14;;;;;;;10.32;9.63;;;;;;;;;;4995397;28;20071;-52
2023/03/02 07:07:40;;;;;;;10.55;9.75;;;;;;;;;;4995008;28;20041;-53
2023/03/02 07:10:06;;;;;;;10.43;9.63;;;;;;;;;;4994387;28;20052;-50
2023/03/02 07:12:31;;;;;;;10.15;9.45;;;;;;;;;;4994626;28;20042;-56
2023/03/02 07:14:57;;;;;;;10.57;9.82;;;;;;;;;;4995923;28;20113;-56
2023/03/02 07:17:22;;;;;;;9.45;8.85;;;;;;;;;;4997459;28;20034;-54
2023/03/02 07:19:47;;;;;;;9.38;8.77;;;;;;;;;;4996363;28;20039;-56
2023/03/02 07:22:13;;;;;;;11.70;10.68;;;;;;;;;;4997991;28;20041;-52
2023/03/02 07:24:38;;;;;;;9.93;9.23;;;;;;;;;;4992110;28;20104;-53
2023/03/02 07:27:03;;;;;;;9.82;9.13;;;;;;;;;;4986251;28;20121;-55
2023/03/02 07:29:29;;;;;;;10.10;9.40;;;;;;;;;;4995328;28;20478;-55
2023/03/02 07:31:56;;;;;;;11.00;10.20;;;;;;;;;;4992857;28;20139;-55
2023/03/02 07:34:25;;;;;;;10.30;9.60;;;;;;;;;;4996643;28;20034;-56
2023/03/02 07:36:51;;;;;;;9.88;9.10;;;;;;;;;;4996076;28;20040;-51
2023/03/02 07:39:17;;;;;;;9.70;9.10;;;;;;;;;;4993950;28;20052;-50
2023/03/02 07:41:42;;;;;;;10.35;9.65;;;;;;;;;;4994289;28;20504;-51
2023/03/02 07:44:08;;;;;;;11.40;10.48;;;;;;;;;;4994098;28;20550;-52
2023/03/02 07:46:33;;;;;;;11.20;10.40;;;;;;;;;;4995216;28;20082;-53
2023/03/02 07:48:59;;;;;;;12.63;11.68;;;;;;;;;;5000192;28;20133;-50
2023/03/02 07:51:24;;;;;;;12.20;11.40;;;;;;;;;;4993698;28;20031;-48
2023/03/02 07:53:50;;;;;;;11.85;11.02;;;;;;;;;;4993665;28;20089;-49
2023/03/02 07:56:15;;;;;;;12.52;11.73;;;;;;;;;;4992918;28;20117;-50
2023/03/02 07:58:41;;;;;;;12.38;11.57;;;;;;;;;;4994766;28;20026;-51
2023/03/02 08:01:07;;;;;;;12.85;12.02;;;;;;;;;;4992294;28;20099;-51
2023/03/02 08:03:33;;;;;;;11.40;10.70;;;;;;;;;;4995161;28;20049;-50
2023/03/02 08:06:07;;;;;;;13.30;12.40;;;;;;;;;;5000801;28;20352;-51
2023/03/02 08:08:34;;;;;;;13.32;12.15;;;;;;;;;;4994250;28;20121;-48
2023/03/02 08:11:06;;;;;;;11.63;10.68;;;;;;;;;;4991115;28;20060;-51
2023/03/02 08:13:32;;;;;;;11.05;10.35;;;;;;;;;;4991418;28;20119;-48
2023/03/02 08:16:01;;;;;;;11.40;10.55;;;;;;;;;;4992639;28;20042;-50
2023/03/02 08:18:27;;;;;;;11.73;10.93;;;;;;;;;;4995645;28;20085;-50
2023/03/02 08:20:53;;;;;;;10.85;10.10;;;;;;;;;;4995280;28;20692;-52
2023/03/02 08:23:19;;;;;;;12.25;11.40;;;;;;;;;;4992925;28;20038;-51
2023/03/02 08:25:45;;;;;;;13.10;12.00;;;;;;;;;;4996619;28;20044;-47
2023/03/02 08:28:10;;;;;;;12.27;11.43;;;;;;;;;;4994839;28;20042;-51
2023/03/02 08:30:36;;;;;;;14.60;13.50;;;;;;;;;;4993921;28;20489;-51
2023/03/02 08:33:01;;;;;;;13.48;12.63;;;;;;;;;;4992653;28;20045;-51
2023/03/02 08:35:27;;;;;;;12.85;12.00;;;;;;;;;;4993050;28;20409;-50
2023/03/02 08:37:53;;;;;;;14.80;13.85;;;;;;;;;;4992104;28;20057;-50
2023/03/02 08:40:18;;;;;;;15.27;14.18;;;;;;;;;;4994693;28;20456;-48
2023/03/02 08:42:43;;;;;;;14.50;13.60;;;;;;;;;;4993376;28;20031;-49
2023/03/02 08:45:09;;;;;;;15.27;14.38;;;;;;;;;;4996616;28;20053;-51
2023/03/02 08:47:34;;;;;;;14.18;13.05;;;;;;;;;;4995692;28;20034;-48
2023/03/02 08:50:00;;;;;;;14.05;12.98;;;;;;;;;;4995020;28;20033;-51
2023/03/02 08:52:25;;;;;;;12.65;11.65;;;;;;;;;;4991692;28;20516;-49
2023/03/02 08:54:50;;;;;;;13.35;12.40;;;;;;;;;;4992276;28;20520;-49
2023/03/02 08:57:16;;;;;;;12.20;11.40;;;;;;;;;;4990729;28;20057;-48
2023/03/02 08:59:41;;;;;;;12.95;11.95;;;;;;;;;;4993405;28;20046;-52
2023/03/02 09:02:09;;;;;;;11.73;10.95;;;;;;;;;;4993261;28;20113;-51
2023/03/02 09:04:34;;;;;;;11.85;11.07;;;;;;;;;;4994751;28;20178;-51
2023/03/02 09:06:59;;;;;;;13.88;12.95;;;;;;;;;;4993465;28;20034;-51
2023/03/02 09:09:24;;;;;;;13.77;12.68;;;;;;;;;;4996977;28;20091;-51
2023/03/02 09:11:50;;;;;;;11.98;11.27;;;;;;;;;;4994010;28;20101;-48
2023/03/02 09:14:15;;;;;;;11.57;10.88;;;;;;;;;;4992699;28;20041;-48
2023/03/02 09:16:41;;;;;;;13.82;12.73;;;;;;;;;;4990635;28;20041;-52
2023/03/02 09:19:06;;;;;;;13.48;12.48;;;;;;;;;;4993036;28;20045;-48
2023/03/02 09:21:31;;;;;;;13.98;12.85;;;;;;;;;;4994742;28;20025;-51
2023/03/02 09:23:57;;;;;;;12.38;11.57;;;;;;;;;;4989746;28;20456;-52
2023/03/02 09:26:24;;;;;;;11.85;11.05;;;;;;;;;;4990134;28;20464;-49
2023/03/02 09:28:49;;;;;;;12.93;12.02;;;;;;;;;;4993813;28;20057;-50
2023/03/02 09:31:15;;;;;;;13.18;12.27;;;;;;;;;;4995320;28;20038;-48
2023/03/02 09:33:40;;;;;;;11.77;10.95;;;;;;;;;;4996617;28;20067;-47
2023/03/02 09:36:12;;;;;;;12.68;11.77;;;;;;;;;;4992785;28;20455;-52
2023/03/02 09:38:38;;;;;;;13.95;12.80;;;;;;;;;;4993564;28;20045;-48
2023/03/02 09:41:53;;;;;;;13.80;12.95;;;;;;;;;;4993926;28;20042;-49
2023/03/02 09:44:32;;;;;;;12.57;11.73;;;;;;;;;;4989599;28;20042;-52
2023/03/02 09:47:29;;;;;;;12.90;11.88;;;;;;;;;;4992075;28;20084;-52
2023/03/02 09:50:15;;;;;;;14.13;13.23;;;;;;;;;;4987229;28;20046;-53
2023/03/02 09:53:07;;;;;;;13.10;12.30;;;;;;;;;;4993069;28;20037;-54
2023/03/02 09:55:35;;;;;;;13.57;12.68;;;;;;;;;;4994418;28;20238;-53
2023/03/02 09:58:05;;;;;;;12.32;11.48;;;;;;;;;;4990037;28;20034;-48
2023/03/02 10:00:35;;;;;;;13.43;12.52;;;;;;;;;;4990337;28;20101;-48
2023/03/02 10:03:05;;;;;;;14.88;13.98;;;;;;;;;;4991459;28;20044;-51
2023/03/02 10:05:39;;;;;;;13.87;12.97;;;;;;;;;;4995393;28;20114;-51
2023/03/02 10:08:09;;;;;;;14.07;13.13;;;;;;;;;;4993345;28;20281;-55
2023/03/02 10:10:51;;;;;;;14.75;13.32;;;;;;;;;;4995322;28;20122;-53
2023/03/02 10:13:45;;;;;;;14.70;13.60;;;;;;;;;;4993522;28;20041;-53
2023/03/02 10:16:25;;;;;;;15.00;13.85;;;;;;;;;;4990945;28;20492;-54
2023/03/02 10:19:10;;;;;;;15.55;14.55;;;;;;;;;;4991616;28;20072;-56
2023/03/02 10:21:38;;;;;;;16.50;15.15;;;;;;;;;;4996769;28;20042;-54
2023/03/02 10:24:28;;;;;;;14.82;13.93;;;;;;;;;;5002141;28;20367;-53
2023/03/02 10:26:56;;;;;;;14.50;13.60;;;;;;;;;;4993370;28;20106;-55
2023/03/02 10:29:31;;;;;;;15.55;14.55;;;;;;;;;;4993659;28;20034;-55
2023/03/02 10:32:04;;;;;;;15.88;14.95;;;;;;;;;;4992275;28;20038;-55
2023/03/02 10:34:30;;;;;;;14.95;14.05;;;;;;;;;;4992744;28;20035;-58
2023/03/02 10:36:56;;;;;;;17.65;16.55;;;;;;;;;;4993265;28;20361;-55
2023/03/02 10:39:21;;;;;;;17.17;16.17;;;;;;;;;;4994601;28;20038;-53
2023/03/02 10:42:11;;;;;;;17.73;16.65;;;;;;;;;;4995449;28;20034;-51
2023/03/02 10:44:41;;;;;;;20.40;19.20;;;;;;;;;;4996006;28;20021;-55
2023/03/02 10:47:17;;;;;;;19.23;18.02;;;;;;;;;;4993607;28;20100;-54
2023/03/02 10:49:46;;;;;;;21.00;19.70;;;;;;;;;;4996564;28;20026;-54
2023/03/02 10:52:13;;;;;;;21.48;20.13;;;;;;;;;;4998093;28;20097;-55
2023/03/02 10:54:39;;;;;;;19.85;18.65;;;;;;;;;;4996911;28;20038;-57
2023/03/02 10:57:35;;;;;;;17.63;16.63;;;;;;;;;;4997644;28;20037;-55
2023/03/02 11:00:12;;;;;;;18.13;16.75;;;;;;;;;;4995277;28;20491;-54
2023/03/02 11:02:48;;;;;;;17.25;16.25;;;;;;;;;;5004552;28;20112;-55
2023/03/02 11:05:16;;;;;;;18.25;17.05;;;;;;;;;;4994638;28;20056;-55
2023/03/02 11:08:00;;;;;;;16.05;15.07;;;;;;;;;;4997940;28;20042;-54
2023/03/02 11:10:35;;;;;;;16.98;15.98;;;;;;;;;;4998364;28;20021;-55
2023/03/02 11:13:13;;;;;;;17.40;16.20;;;;;;;;;;4996663;28;20046;-55
2023/03/02 11:15:45;;;;;;;17.08;15.98;;;;;;;;;;4994388;28;20288;-56
2023/03/02 11:18:26;;;;;;;16.83;15.82;;;;;;;;;;4996201;28;20034;-56
2023/03/02 11:21:00;;;;;;;15.65;14.75;;;;;;;;;;4993478;28;20100;-56
2023/03/02 11:23:30;;;;;;;15.75;14.75;;;;;;;;;;5003864;28;20041;-57
2023/03/02 11:26:11;;;;;;;15.25;14.25;;;;;;;;;;4993498;28;20038;-54
2023/03/02 11:28:48;;;;;;;17.20;16.08;;;;;;;;;;4995067;28;20467;-56
2023/03/02 11:31:40;;;;;;;16.25;15.10;;;;;;;;;;4994512;28;20045;-58
2023/03/02 11:34:24;;;;;;;16.27;15.30;;;;;;;;;;4995268;28;20053;-56
2023/03/02 11:37:02;;;;;;;18.52;17.15;;;;;;;;;;4994691;28;20364;-56
2023/03/02 11:39:35;;;;;;;17.17;16.17;;;;;;;;;;4991866;28;20381;-55
2023/03/02 11:42:01;;;;;;;18.70;17.40;;;;;;;;;;4996253;28;20038;-55
2023/03/02 11:44:28;;;;;;;18.08;16.83;;;;;;;;;;4993129;28;20426;-56
2023/03/02 11:47:00;;;;;;;19.27;18.00;;;;;;;;;;4992691;28;20485;-56
2023/03/02 11:49:44;;;;;;;17.88;16.85;;;;;;;;;;4995491;28;20375;-56
2023/03/02 11:52:21;;;;;;;17.40;16.23;;;;;;;;;;4993027;28;20033;-55
2023/03/02 11:55:04;;;;;;;18.15;16.95;;;;;;;;;;4998581;28;20040;-58
2023/03/02 11:57:35;;;;;;;18.65;17.30;;;;;;;;;;4993788;28;20127;-57
2023/03/02 12:00:01;;;;;;;17.20;16.00;;;;;;;;;;4995122;28;20052;-56
2023/03/02 12:02:27;;;;;;;19.42;17.83;;;;;;;;;;4991672;28;20038;-55
2023/03/02 12:05:04;;;;;;;18.00;16.90;;;;;;;;;;4993600;28;20026;-56
2023/03/02 12:07:30;;;;;;;18.38;17.27;;;;;;;;;;4994365;28;20034;-57
2023/03/02 12:10:03;;;;;;;18.70;17.60;;;;;;;;;;4996507;28;20169;-58
2023/03/02 12:12:39;;;;;;;17.63;16.48;;;;;;;;;;4994428;28;20364;-58
2023/03/02 12:15:26;;;;;;;18.27;17.05;;;;;;;;;;4994706;28;20038;-57
2023/03/02 12:17:52;;;;;;;16.90;15.57;;;;;;;;;;4993676;28;20064;-58
2023/03/02 12:20:25;;;;;;;17.58;15.93;;;;;;;;;;4993043;28;20458;-57
2023/03/02 12:22:51;;;;;;;18.48;17.27;;;;;;;;;;4991802;28;20088;-58
2023/03/02 12:25:19;;;;;;;16.00;14.90;;;;;;;;;;4993447;28;20076;-57
2023/03/02 12:27:50;;;;;;;17.00;15.75;;;;;;;;;;4994080;28;20037;-58
2023/03/02 12:30:23;;;;;;;14.35;13.45;;;;;;;;;;4994531;28;20033;-56
2023/03/02 12:33:10;;;;;;;15.50;14.40;;;;;;;;;;4995396;28;20038;-57
2023/03/02 12:35:37;;;;;;;15.60;14.70;;;;;;;;;;4994992;28;20388;-57
2023/03/02 12:38:22;;;;;;;16.42;15.25;;;;;;;;;;4990448;28;21956;-59
2023/03/02 12:41:14;;;;;;;17.15;15.90;;;;;;;;;;4993102;28;20049;-58
2023/03/02 12:44:08;;;;;;;17.42;16.33;;;;;;;;;;4993513;28;20933;-58
2023/03/02 12:46:35;;;;;;;14.88;13.98;;;;;;;;;;4991999;28;20049;-58
2023/03/02 12:49:31;;;;;;;16.13;15.07;;;;;;;;;;4994691;28;20053;-57
2023/03/02 12:52:02;;;;;;;17.13;16.05;;;;;;;;;;4996765;28;20121;-51
2023/03/02 12:54:28;;;;;;;;;;;;;;;;;;4993441;28;20046;-50
2023/03/02 12:57:16;;;;;;;15.50;14.38;;;;;;;;;;4994590;28;19923;-50
2023/03/02 12:59:49;;;;;;;15.32;14.30;;;;;;;;;;4998547;28;20056;-49
2023/03/02 13:02:23;;;;;;;14.57;13.45;;;;;;;;;;4993680;28;20038;-52
2023/03/02 13:04:56;;;;;;;15.80;14.77;;;;;;;;;;4994588;28;20044;-51
2023/03/02 13:07:33;;;;;;;14.20;13.30;;;;;;;;;;4994016;28;20672;-52
2023/03/02 13:09:58;;;;;;;14.35;13.45;;;;;;;;;;4995965;28;20037;-50
2023/03/02 13:12:28;;;;;;;15.98;14.80;;;;;;;;;;4992014;28;20030;-49
2023/03/02 13:14:56;;;;;;;13.82;12.98;;;;;;;;;;4994141;28;20053;-49
2023/03/02 13:17:31;;;;;;;16.50;15.50;;;;;;;;;;4993222;28;20026;-50
2023/03/02 13:19:58;;;;;;;15.57;14.30;;;;;;;;;;4991918;28;20053;-54
2023/03/02 13:22:24;;;;;;;15.00;14.00;;;;;;;;;;4995061;28;20030;-51
2023/03/02 13:25:02;;;;;;;14.43;13.52;;;;;;;;;;4994345;28;20907;-52
2023/03/02 13:27:28;;;;;;;14.38;13.48;;;;;;;;;;4993591;28;20118;-52
2023/03/02 13:29:55;;;;;;;13.38;12.57;;;;;;;;;;4992912;28;20037;-47
2023/03/02 13:32:27;;;;;;;14.93;13.90;;;;;;;;;;4995736;28;20030;-51
2023/03/02 13:34:56;;;;;;;15.40;14.45;;;;;;;;;;4993997;28;20045;-50
2023/03/02 13:37:37;;;;;;;15.63;14.55;;;;;;;;;;4992943;28;20034;-51
2023/03/02 13:40:05;;;;;;;16.42;15.13;;;;;;;;;;4996196;28;20409;-51
2023/03/02 13:42:40;;;;;;;13.95;13.00;;;;;;;;;;4992877;28;20065;-49
2023/03/02 13:45:30;;;;;;;14.05;12.95;;;;;;;;;;4991709;28;20042;-52
2023/03/02 13:47:57;;;;;;;15.18;14.18;;;;;;;;;;4991288;28;20054;-52
2023/03/02 13:50:29;;;;;;;14.63;13.70;;;;;;;;;;4993654;28;20052;-52
2023/03/02 13:53:02;;;;;;;13.43;12.52;;;;;;;;;;4992494;28;20117;-52
2023/03/02 13:55:28;;;;;;;15.43;14.43;;;;;;;;;;4997214;28;20038;-56
2023/03/02 14:11:20;;;;;;;14.25;13.35;;;;;;;;;;4993258;28;20030;-56
2023/03/02 14:13:53;;;;;;;14.73;13.70;;;;;;;;;;4997129;28;20037;-56
2023/03/02 14:16:19;;;;;;;14.40;13.25;;;;;;;;;;4991972;28;20042;-58
2023/03/02 14:18:46;;;;;;;13.70;12.80;;;;;;;;;;4993055;28;20471;-56
2023/03/02 14:21:14;;;;;;;14.85;13.75;;;;;;;;;;4994198;28;20034;-59
2023/03/02 14:23:40;;;;;;;15.43;14.38;;;;;;;;;;4995722;28;20754;-57
2023/03/02 14:26:19;;;;;;;15.25;14.20;;;;;;;;;;4992678;28;20095;-57
2023/03/02 14:28:44;;;;;;;13.43;12.52;;;;;;;;;;4999803;28;20116;-57
2023/03/02 14:31:10;;;;;;;14.93;13.95;;;;;;;;;;4994945;28;20077;-56
2023/03/02 14:33:36;;;;;;;13.35;12.45;;;;;;;;;;4999220;28;20758;-56
2023/03/02 14:36:04;;;;;;;14.07;13.27;;;;;;;;;;4995677;28;20042;-57
2023/03/02 14:38:29;;;;;;;14.63;13.73;;;;;;;;;;4999822;28;20045;-57
2023/03/02 14:40:55;;;;;;;14.93;13.93;;;;;;;;;;4998585;28;20038;-56
2023/03/02 14:43:22;;;;;;;20.35;13.38;;;;;;;;;;4997050;28;20029;-57
2023/03/02 14:45:48;;;;;;;14.13;13.18;;;;;;;;;;4999061;28;20060;-56
2023/03/02 14:48:14;;;;;;;12.75;11.95;;;;;;;;;;4997937;28;20034;-57
2023/03/02 14:50:43;;;;;;;14.10;13.18;;;;;;;;;;4998302;28;20030;-56